ADDS METAR Data INFO
IDs: Format: Raw Decoded Include TAF

Data at: 1314 UTC 11 Dec 2017

KROA 111254Z 28005KT 10SM CLR 02/M05 A3009 RMK AO2 SLP196 T00221050
KROA 111154Z 00000KT 10SM CLR 02/M06 A3007 RMK AO2 SLP190 T00221056 10044 20006 53007
KROA 111054Z 29008KT 10SM CLR 03/M06 A3005 RMK AO2 SLP182 T00331056
KROA 110954Z 27011G20KT 10SM CLR 04/M06 A3005 RMK AO2 SLP181 T00391056
KROA 110854Z 29008KT 10SM CLR 03/M06 A3005 RMK AO2 SLP181 T00331061 55004
KROA 110754Z 25008KT 10SM CLR 03/M07 A3005 RMK AO2 SLP180 T00281072
KROA 110654Z 25006KT 10SM CLR 01/M08 A3006 RMK AO2 SLP184 T00061078
KROA 110554Z 26009KT 10SM CLR 02/M08 A3006 RMK AO2 SLP187 T00171083 10028 20011 58004
KROA 110454Z 26008KT 10SM CLR 02/M09 A3008 RMK AO2 SLP192 T00171089 400501006
KROA 110354Z 26008KT 10SM CLR 02/M08 A3009 RMK AO2 SLP196 T00171083
KROA 110254Z 22007KT 10SM CLR 02/M08 A3008 RMK AO2 SLP193 T00221083 50001
KROA 110154Z 23009KT 10SM BKN090 02/M08 A3008 RMK AO2 SLP193 T00221078
KROA 110054Z 24008KT 10SM CLR 02/M08 A3007 RMK AO2 SLP192 T00221078
KROA 102354Z 23007KT 10SM CLR 02/M08 A3007 RMK AO2 SLP192 T00221078 10050 20022 52001
KROA 102254Z 25006KT 10SM SCT210 02/M07 A3007 RMK AO2 SLP192 T00221072
KROA 102154Z 23007KT 10SM CLR 03/M07 A3007 RMK AO2 SLP191 T00331072
KROA 102054Z 22008KT 10SM CLR 04/M08 A3007 RMK AO2 SLP189 T00441078 56012
KROA 101954Z 23009KT 10SM CLR 04/M08 A3007 RMK AO2 SLP190 T00441078
KROA 101854Z 24008G15KT 10SM CLR 04/M08 A3008 RMK AO2 SLP194 T00391078
KROA 101754Z 24007KT 10SM FEW043 03/M07 A3011 RMK AO2 SLP203 T00281072 10028 21006 58013
KROA 101654Z 29008KT 10SM SCT041 02/M07 A3013 RMK AO2 SLP212 T00221067
KROA 101554Z 30009KT 10SM SCT042 02/M07 A3015 RMK AO2 SLP218 T00171072
KROA 101454Z 31015KT 10SM BKN037 01/M07 A3015 RMK AO2 SLP216 T00061072 53024
KROA 101354Z 29013G19KT 10SM BKN036 00/M07 A3011 RMK AO2 SLP206 T00001072
KROA 101254Z 29012G17KT 10SM BKN035 M01/M07 A3009 RMK AO2 SLP199 T10061072
KROA 101154Z 30010G15KT 10SM BKN037 M01/M07 A3007 RMK AO2 SLP192 60000 70010 T10061072 10000 21006 53030
KROA 101054Z 29015G24KT 10SM SCT040 M01/M07 A3003 RMK AO2 PK WND 29037/0955 SLP177 T10061072
KROA 100954Z 31024G35KT 10SM OVC043 00/M08 A3000 RMK AO2 PK WND 29035/0946 SLP167 T00001078
KROA 100854Z 30013G22KT 10SM OVC042 M01/M07 A2998 RMK AO2 SLP159 P0000 60000 T10061072 53015
KROA 100754Z 31017G21KT 10SM OVC041 M01/M07 A2996 RMK AO2 SLP155 T10061067
KROA 100654Z 30010G23KT 10SM FEW047 M01/M08 A2995 RMK AO2 PK WND 31028/0615 SLP149 T10061078
KROA 100554Z 30014G25KT 10SM SCT049 00/M08 A2993 RMK AO2 PK WND 31029/0511 SLP145 60000 T00001083 10017 21006 51024
KROA 100454Z 30022G28KT 10SM SCT034 00/M07 A2991 RMK AO2 PK WND 30030/0434 SLP137 P0000 T00001067 400281011
KROA 100354Z 29014G21KT 10SM FEW049 01/M07 A2989 RMK AO2 SLP129 T00111072
KROA 100254Z 28013G21KT 10SM FEW055 SCT110 02/M07 A2986 RMK AO2 SLP120 T00171072 51014
KROA 100154Z 00000KT 10SM OVC110 01/M01 A2985 RMK AO2 SLP115 T00061011